M I D A S
Marine Information and Data Acquisition System
Tripno 517 of the Zeeleeuw from 2003-06-17 06:38:05 to 2003-06-17 13:34:09
Back to CruiseResearch ActivitiesStationsMapUnderway DataData graphs

EquipmentUnitsComment
TimeDGPSUTC
LatitudeDGPSDM.mWGS84
LongitudeDGPSDM.mWGS84
HeadingGyrodeg 
SOGDGPSknotsSpeed over ground
COGDGPSdegCourse over ground
DepthEcho soundermeters200 kHz
Missing or incorrect values are displayed as -999
Navigation data collected by the RV Zeeleeuw from 2003-06-17 06:38:05 to 2003-06-17 13:34:09
Time Latitude Longitude Heading SOG COG Depth
2003-06-17 06:39:09 51°13.61 2°56.09 120.7 0.1 198 7.2
2003-06-17 06:40:09 51°13.61 2°56.09 111.7 0.1 194 7.6
2003-06-17 06:41:09 51°13.61 2°56.07 107.4 1.5 288 5
2003-06-17 06:42:13 51°13.62 2°56.01 106 3.3 282 -999
2003-06-17 06:43:13 51°13.64 2°55.91 124.6 4 301 -999
2003-06-17 06:44:13 51°13.68 2°55.82 119.6 4 299 -999
2003-06-17 06:45:11 51°13.7 2°55.77 98.7 0.5 358 12.2
2003-06-17 06:46:09 51°13.71 2°55.78 37.9 1.1 15 10.9
2003-06-17 06:47:11 51°13.71 2°55.77 23.9 1.5 216 -999
2003-06-17 06:48:13 51°13.69 2°55.75 5.7 0.5 297 12.1
2003-06-17 06:49:11 51°13.73 2°55.72 334.5 4.6 328 9.6
2003-06-17 06:50:09 51°13.81 2°55.65 340 6.7 335 10
2003-06-17 06:51:09 51°13.92 2°55.56 340.5 7.5 335 10.3
2003-06-17 06:52:09 51°14.03 2°55.48 341.1 7.7 336 10
2003-06-17 06:53:09 51°14.16 2°55.39 339.1 8.5 333 10.3
2003-06-17 06:54:09 51°14.27 2°55.25 318.9 9.2 313 10.3
2003-06-17 06:55:09 51°14.36 2°55.03 296.8 10.3 291 9.2
2003-06-17 06:56:09 51°14.42 2°54.76 287.9 11.3 280 9.2
2003-06-17 06:57:09 51°14.43 2°54.45 278.7 12.2 272 9.5
2003-06-17 06:58:09 51°14.37 2°54.14 244.1 12.7 240 8.2
2003-06-17 06:59:09 51°14.25 2°53.84 238.4 13.6 235 8.2
2003-06-17 07:00:09 51°14.13 2°53.54 239.2 14.1 235 8.2
2003-06-17 07:01:09 51°13.99 2°53.23 239.1 14.3 235 8.4
2003-06-17 07:02:09 51°13.86 2°52.91 239 14.8 235 8.7
2003-06-17 07:03:09 51°13.72 2°52.58 241.1 15.1 237 8.8
2003-06-17 07:04:09 51°13.58 2°52.24 241.4 15.2 238 9
2003-06-17 07:05:09 51°13.44 2°51.91 241.3 15 237 8.9
2003-06-17 07:06:09 51°13.3 2°51.58 239.6 15.1 237 8.8
2003-06-17 07:07:09 51°13.16 2°51.25 243.1 15 240 8.7
2003-06-17 07:08:09 51°13.04 2°50.9 243.8 15 240 8.9
2003-06-17 07:09:09 51°12.92 2°50.55 244.2 15.1 240 9
2003-06-17 07:10:09 51°12.8 2°50.2 244 15 240 9
2003-06-17 07:11:09 51°12.68 2°49.85 246.4 15.1 242 9.1
2003-06-17 07:12:09 51°12.56 2°49.5 245.7 15 242 9.1
2003-06-17 07:13:09 51°12.44 2°49.15 244.4 15 241 9.1
2003-06-17 07:14:09 51°12.32 2°48.8 245.1 15 241 9.3
2003-06-17 07:15:09 51°12.2 2°48.45 245.3 15.1 241 9.3
2003-06-17 07:16:09 51°12.08 2°48.1 245 15 241 9.2
2003-06-17 07:17:09 51°11.96 2°47.75 244.4 15.1 241 9.1
2003-06-17 07:18:09 51°11.86 2°47.39 251.7 15 247 9.2
2003-06-17 07:19:09 51°11.76 2°47.02 251.1 15 247 9.3
2003-06-17 07:20:09 51°11.66 2°46.66 251.8 15.1 248 9.3
2003-06-17 07:21:09 51°11.56 2°46.29 250.9 15.1 247 9.6
2003-06-17 07:22:09 51°11.46 2°45.92 250.3 15 246 9.4
2003-06-17 07:23:09 51°11.36 2°45.56 250.4 15 247 9.4
2003-06-17 07:24:09 51°11.26 2°45.19 250.6 15 247 9.3
2003-06-17 07:25:09 51°11.16 2°44.83 250.3 15 247 9.2
2003-06-17 07:26:09 51°11.06 2°44.46 249.7 15 246 9.1
2003-06-17 07:27:09 51°10.96 2°44.1 249.4 14.9 246 8.9
2003-06-17 07:28:09 51°10.87 2°43.74 249.5 14.8 246 8.8
2003-06-17 07:29:09 51°10.77 2°43.37 249.9 14.8 246 8.7
2003-06-17 07:30:09 51°10.68 2°43.01 251.1 14.7 248 8.6
2003-06-17 07:31:09 51°10.58 2°42.66 252.5 14.6 249 8.3
2003-06-17 07:32:09 51°10.49 2°42.3 249.9 14.7 247 8.3
2003-06-17 07:33:09 51°10.4 2°41.94 250.1 14.6 247 8.3
2003-06-17 07:34:09 51°10.3 2°41.58 252.8 14.7 250 8.3
2003-06-17 07:35:09 51°10.21 2°41.22 249.2 14.8 247 8.4
2003-06-17 07:36:09 51°10.11 2°40.85 248.5 14.8 246 8.4
2003-06-17 07:37:09 51°10.02 2°40.49 249.2 14.8 247 8.5
2003-06-17 07:38:09 51°9.93 2°40.13 250.3 14.8 248 8.4
2003-06-17 07:39:09 51°9.83 2°39.77 250.4 14.8 248 8.5
2003-06-17 07:40:09 51°9.74 2°39.4 251.1 14.8 248 8.6
2003-06-17 07:41:09 51°9.65 2°39.04 251.7 14.9 249 8.7
2003-06-17 07:42:09 51°9.55 2°38.68 251.8 14.4 249 8.9
2003-06-17 07:43:09 51°9.47 2°38.33 252.3 13.5 250 9.1
2003-06-17 07:44:09 51°9.41 2°38.01 255.7 12 253 9.3
2003-06-17 07:45:09 51°9.35 2°37.71 252.7 11.4 250 9.4
2003-06-17 07:46:09 51°9.3 2°37.5 252.8 7 251 9.5
2003-06-17 07:47:09 51°9.27 2°37.35 250.4 5.3 250 9.7
2003-06-17 07:48:09 51°9.23 2°37.25 219.2 3.8 228 9.6
2003-06-17 07:49:09 51°9.19 2°37.19 188.5 2.8 209 9.2
2003-06-17 07:50:09 51°9.15 2°37.17 160.5 2.1 192 8.9
2003-06-17 07:51:09 51°9.12 2°37.17 132.3 1.4 175 8.7
2003-06-17 07:52:09 51°9.11 2°37.18 104.6 0.8 151 8.5
2003-06-17 07:53:09 51°9.1 2°37.19 76.4 0.4 75 8.5
2003-06-17 07:54:09 51°9.11 2°37.19 55.1 0.7 18 8.5
2003-06-17 07:55:09 51°9.12 2°37.2 69 0.8 51 8.6
2003-06-17 07:56:09 51°9.13 2°37.22 80.1 0.9 77 8.6
2003-06-17 07:57:09 51°9.13 2°37.25 89.1 1 95 8.6
2003-06-17 07:58:09 51°9.12 2°37.27 100 1.1 116 8.5
2003-06-17 07:59:09 51°9.12 2°37.3 79.8 0.7 82 8.4
2003-06-17 08:00:09 51°9.13 2°37.31 71 0.7 59 8.5
2003-06-17 08:01:09 51°9.13 2°37.33 70.4 0.7 56 8.5
2003-06-17 08:02:09 51°9.14 2°37.34 73.9 0.6 65 8.6
2003-06-17 08:03:09 51°9.14 2°37.36 78.4 0.6 74 8.6
2003-06-17 08:04:09 51°9.14 2°37.37 82.9 0.6 90 8.4
2003-06-17 08:05:09 51°9.14 2°37.39 87 0.4 101 8.6
2003-06-17 08:06:09 51°9.14 2°37.4 90.3 0.4 125 8.4
2003-06-17 08:07:09 51°9.13 2°37.4 93.2 0.3 145 8.4
2003-06-17 08:08:09 51°9.13 2°37.41 96.1 0.4 164 8.4
2003-06-17 08:09:09 51°9.12 2°37.41 99.2 0.4 178 8.2
2003-06-17 08:10:09 51°9.12 2°37.41 102.6 0.4 185 8.3
2003-06-17 08:11:09 51°9.11 2°37.41 106.4 0.5 191 8.2
2003-06-17 08:12:09 51°9.1 2°37.4 110.4 0.5 193 8.2
2003-06-17 08:13:09 51°9.09 2°37.4 113.9 0.6 196 8.1
2003-06-17 08:14:09 51°9.08 2°37.4 117.3 0.7 198 8.1
2003-06-17 08:15:09 51°9.07 2°37.39 120.4 0.7 199 8.1
2003-06-17 08:16:09 51°9.06 2°37.38 123.2 0.8 200 7.9
2003-06-17 08:17:09 51°9.05 2°37.38 125.3 0.8 203 8
2003-06-17 08:18:09 51°9.03 2°37.37 125.6 0.8 202 7.8
2003-06-17 08:19:09 51°9.02 2°37.36 121.2 0.8 203 7.8
2003-06-17 08:20:09 51°9.01 2°37.35 118.4 0.7 191 7.8
2003-06-17 08:21:09 51°9 2°37.35 117.5 0.8 177 7.6
2003-06-17 08:22:09 51°8.99 2°37.36 124.1 1 174 7.6
2003-06-17 08:23:09 51°8.96 2°37.36 146.5 1.4 182 7.5
2003-06-17 08:24:09 51°8.94 2°37.35 170.5 1.7 196 7.5
2003-06-17 08:25:09 51°8.91 2°37.33 193.9 2 213 7.4
2003-06-17 08:26:09 51°8.89 2°37.29 215.8 2.1 227 7.3
2003-06-17 08:27:09 51°8.86 2°37.25 238.1 2.4 239 7.2
2003-06-17 08:28:09 51°8.86 2°37.15 284.8 5.7 276 6.9
2003-06-17 08:29:09 51°8.89 2°36.94 291 10.1 283 6.8
2003-06-17 08:30:09 51°8.93 2°36.65 290.7 11.4 284 7.3
2003-06-17 08:31:09 51°8.98 2°36.35 289.3 11.8 282 8.9
2003-06-17 08:32:09 51°9 2°36.04 284.5 11.6 277 11.7
2003-06-17 08:33:09 51°9.03 2°35.75 284.6 10.8 277 13.8
2003-06-17 08:34:09 51°9.05 2°35.47 284.6 10.6 277 14.2
2003-06-17 08:35:09 51°9.06 2°35.19 272.5 10.7 266 14.7
2003-06-17 08:36:09 51°9.04 2°34.95 268.6 8.1 262 14.9
2003-06-17 08:37:09 51°9.02 2°34.75 269.6 7.3 263 14.3
2003-06-17 08:38:09 51°9 2°34.56 269.1 7.2 261 14.2
2003-06-17 08:39:09 51°8.99 2°34.38 269.7 7.1 262 14.4
2003-06-17 08:40:09 51°8.97 2°34.19 270.1 7.1 262 13.6
2003-06-17 08:41:09 51°8.96 2°34 278.8 7 268 14.3
2003-06-17 08:42:09 51°8.96 2°33.82 282.3 7 271 14.6
2003-06-17 08:43:09 51°8.96 2°33.63 280.1 7 270 15.9
2003-06-17 08:44:09 51°8.96 2°33.45 280.5 7.1 269 16.2
2003-06-17 08:45:09 51°8.96 2°33.26 282.4 7.2 271 16.2
2003-06-17 08:46:09 51°8.97 2°33.08 303.4 6 285 16.3
2003-06-17 08:47:09 51°9.01 2°32.97 336.8 3.8 306 16.1
2003-06-17 08:48:09 51°9.04 2°32.91 4.6 2.4 325 15.5
2003-06-17 08:49:09 51°9.07 2°32.89 23.9 1.7 344 14.8
2003-06-17 08:50:09 51°9.09 2°32.89 42 1.1 4 14.3
2003-06-17 08:51:09 51°9.11 2°32.89 56.5 0.8 37 13.8
2003-06-17 08:52:09 51°9.12 2°32.91 62.4 0.6 59 13.9
2003-06-17 08:53:09 51°9.12 2°32.92 66 0.5 76 13.9
2003-06-17 08:54:09 51°9.12 2°32.93 65.3 0.2 89 14.1
2003-06-17 08:55:09 51°9.12 2°32.93 63.3 0.1 156 14.1
2003-06-17 08:56:09 51°9.12 2°32.93 60.2 0.2 229 14.2
2003-06-17 08:57:09 51°9.11 2°32.92 56.4 0.4 242 14.2
2003-06-17 08:58:09 51°9.11 2°32.91 53.4 0.5 253 14
2003-06-17 08:59:09 51°9.11 2°32.9 49.7 0.6 253 13.9
2003-06-17 09:00:09 51°9.1 2°32.88 47 0.7 253 13.9
2003-06-17 09:01:09 51°9.1 2°32.86 45.7 0.7 254 13.8
2003-06-17 09:02:09 51°9.1 2°32.85 43.6 0.8 255 13.6
2003-06-17 09:03:09 51°9.09 2°32.82 43.9 0.8 253 13.4
2003-06-17 09:04:09 51°9.09 2°32.8 44.7 0.8 249 13.2
2003-06-17 09:05:09 51°9.09 2°32.78 44.8 0.9 250 13
2003-06-17 09:06:09 51°9.08 2°32.76 43.3 0.9 251 13
2003-06-17 09:07:09 51°9.08 2°32.74 44.2 0.8 251 12.7
2003-06-17 09:08:09 51°9.07 2°32.72 50.9 0.5 257 12.6
2003-06-17 09:09:09 51°9.07 2°32.72 59.5 0.1 252 12.6
2003-06-17 09:10:09 51°9.07 2°32.72 74.2 0.4 122 12.6
2003-06-17 09:11:09 51°9.06 2°32.73 95 1.1 142 13.3
2003-06-17 09:12:09 51°9.04 2°32.75 106.3 1.5 148 14.4
2003-06-17 09:13:09 51°9.02 2°32.77 117.9 1.8 162 15.5
2003-06-17 09:14:09 51°8.99 2°32.78 129 2.1 174 16.1
2003-06-17 09:15:09 51°8.95 2°32.78 137.9 2.2 181 16.6
2003-06-17 09:16:09 51°8.91 2°32.79 140.4 2.9 174 16.9
2003-06-17 09:17:09 51°8.85 2°32.8 152.1 4.3 173 16.9
2003-06-17 09:18:09 51°8.77 2°32.8 170.5 5.3 184 16.8
2003-06-17 09:19:09 51°8.68 2°32.77 190.9 5.8 200 17.4
2003-06-17 09:20:09 51°8.59 2°32.71 200.2 5.7 207 17.9
2003-06-17 09:21:09 51°8.51 2°32.64 209.4 5 215 17.5
2003-06-17 09:22:09 51°8.45 2°32.56 218.4 4.6 222 17.1
2003-06-17 09:23:09 51°8.4 2°32.47 245 4 238 16.8
2003-06-17 09:24:09 51°8.38 2°32.38 281.6 3.6 261 17.3
2003-06-17 09:25:09 51°8.39 2°32.29 327.6 3 289 17.4
2003-06-17 09:26:09 51°8.41 2°32.24 9.8 1.9 324 17.5
2003-06-17 09:27:09 51°8.43 2°32.24 42.3 1.3 18 17.5
2003-06-17 09:28:09 51°8.45 2°32.26 66.1 1.5 71 17.5
2003-06-17 09:29:09 51°8.46 2°32.3 61.2 1.2 68 17.5
2003-06-17 09:30:09 51°8.46 2°32.32 48.5 0.8 33 17.5
2003-06-17 09:31:09 51°8.48 2°32.32 40.2 0.6 348 17.5
2003-06-17 09:32:09 51°8.48 2°32.31 45.8 0.3 323 17.4
2003-06-17 09:33:09 51°8.48 2°32.31 65.2 0.3 175 17.4
2003-06-17 09:34:09 51°8.48 2°32.31 63.8 0.3 202 17.4
2003-06-17 09:35:09 51°8.47 2°32.31 57.5 0.2 252 17.5
2003-06-17 09:36:09 51°8.47 2°32.31 60.3   187 17.5
2003-06-17 09:37:09 51°8.47 2°32.31 58   59 17.6
2003-06-17 09:38:09 51°8.47 2°32.31 54.4 0.1 22 17.6
2003-06-17 09:39:09 51°8.47 2°32.31 57.5 0.2 67 17.5
2003-06-17 09:40:09 51°8.47 2°32.32 60.6 0.3 87 17.5
2003-06-17 09:41:09 51°8.47 2°32.33 59.6 0.2 78 17.5
2003-06-17 09:42:09 51°8.48 2°32.33 52.6 0.3 4 17.5
2003-06-17 09:43:09 51°8.48 2°32.33 52.6 0.3 18 17.5
2003-06-17 09:44:09 51°8.48 2°32.34 56.1 0.2 24 17.6
2003-06-17 09:45:09 51°8.48 2°32.34 56.5 0.1 32 17.6
2003-06-17 09:46:09 51°8.49 2°32.34 44.2 0.3 321 17.7
2003-06-17 09:47:09 51°8.49 2°32.33 47.1 0.3 320 17.6
2003-06-17 09:48:09 51°8.49 2°32.33 58   359 17.6
2003-06-17 09:49:09 51°8.49 2°32.33 69.5 0.3 150 17.6
2003-06-17 09:50:09 51°8.48 2°32.34 82 0.7 159 17.6
2003-06-17 09:51:09 51°8.47 2°32.34 94.9 1 164 17.7
2003-06-17 09:52:09 51°8.45 2°32.35 105.7 1.2 175 17.7
2003-06-17 09:53:09 51°8.43 2°32.35 115.7 1.4 178 17.8
2003-06-17 09:54:09 51°8.4 2°32.35 122.2 1.5 180 17.7
2003-06-17 09:55:09 51°8.37 2°32.35 125.5 1.6 181 17.7
2003-06-17 09:56:09 51°8.35 2°32.35 129.9 1.6 188 17.3
2003-06-17 09:57:09 51°8.32 2°32.34 132 1.6 193 16.9
2003-06-17 09:58:09 51°8.3 2°32.33 133.3 1.5 196 16.8
2003-06-17 09:59:09 51°8.27 2°32.31 135.1 1.5 200 16.7
2003-06-17 10:00:09 51°8.25 2°32.3 137.5 1.5 202 16.7
2003-06-17 10:01:09 51°8.23 2°32.29 139.4 1.5 204 17
2003-06-17 10:02:09 51°8.21 2°32.27 137.6 1.5 205 16.7
2003-06-17 10:03:09 51°8.18 2°32.26 132.5 1.4 205 16.8
2003-06-17 10:04:09 51°8.16 2°32.24 126.3 1.3 205 16.9
2003-06-17 10:05:09 51°8.15 2°32.23 120.7 1.1 205 16.8
2003-06-17 10:06:09 51°8.13 2°32.21 114.5 1.1 206 16.9
2003-06-17 10:07:09 51°8.11 2°32.2 109.1 1.1 207 16.7
2003-06-17 10:08:09 51°8.1 2°32.19 104.5 1 209 16.4
2003-06-17 10:09:09 51°8.08 2°32.18 100.1 0.9 210 16.5
2003-06-17 10:10:09 51°8.07 2°32.16 96.8 0.8 211 16.5
2003-06-17 10:11:09 51°8.06 2°32.15 95.8 0.8 213 16.5
2003-06-17 10:12:09 51°8.05 2°32.14 95.9 0.8 212 16.7
2003-06-17 10:13:09 51°8.04 2°32.13 97.3 0.8 213 16.7
2003-06-17 10:14:09 51°8.03 2°32.12 97.9 0.8 213 16.8
2003-06-17 10:15:09 51°8.01 2°32.11 98.5 0.8 213 16.8
2003-06-17 10:16:09 51°8 2°32.09 98.9 0.8 213 16.7
2003-06-17 10:17:09 51°7.99 2°32.08 97.6 0.8 215 16.6
2003-06-17 10:18:09 51°7.98 2°32.07 95.9 0.8 215 16.4
2003-06-17 10:19:09 51°7.97 2°32.06 95.2 0.8 218 16.5
2003-06-17 10:20:09 51°7.96 2°32.04 94.5 0.8 216 16.1
2003-06-17 10:21:09 51°7.95 2°32.03 95.3 0.8 215 15.9
2003-06-17 10:22:09 51°7.94 2°32.02 96.3 0.8 217 16.4
2003-06-17 10:23:09 51°7.93 2°32.01 96.6 0.8 217 16.8
2003-06-17 10:24:09 51°7.92 2°31.99 95.2 0.7 220 17.1
2003-06-17 10:25:09 51°7.91 2°31.99 94.9 0.6 166 16.9
2003-06-17 10:26:09 51°7.9 2°32 96.2 1 126 16.7
2003-06-17 10:27:09 51°7.9 2°32.03 89 1.3 103 16.5
2003-06-17 10:28:09 51°7.89 2°32.07 78 1.5 84 16.4
2003-06-17 10:29:09 51°7.9 2°32.11 76.9 1.7 80 16
2003-06-17 10:30:09 51°7.9 2°32.16 80.5 1.9 85 15.7
2003-06-17 10:31:09 51°7.9 2°32.21 80.5 1.9 84 15.5
2003-06-17 10:32:09 51°7.91 2°32.26 75.2 1.9 76 15.7
2003-06-17 10:33:09 51°7.92 2°32.31 73.3 2 74 15.5
2003-06-17 10:34:09 51°7.92 2°32.36 76.2 2 79 15.3
2003-06-17 10:35:09 51°7.93 2°32.41 73.9 2 78 15.2
2003-06-17 10:36:09 51°7.94 2°32.46 65.8 1.9 66 15.4
2003-06-17 10:37:09 51°7.96 2°32.5 61.1 1.9 59 15.5
2003-06-17 10:38:09 51°7.97 2°32.54 65.5 1.8 65 15.4
2003-06-17 10:39:09 51°7.98 2°32.59 72.4 1.8 75 15.4
2003-06-17 10:40:09 51°7.99 2°32.64 73 1.8 78 15
2003-06-17 10:41:09 51°8 2°32.68 66.5 1.7 68 14.8
2003-06-17 10:42:09 51°8.01 2°32.72 58.2 1.5 54 15
2003-06-17 10:43:09 51°8.02 2°32.75 57.3 1.4 48 15.3
2003-06-17 10:44:09 51°8.04 2°32.78 65 1.4 60 15.3
2003-06-17 10:45:09 51°8.05 2°32.81 74.3 1.5 76 15.5
2003-06-17 10:46:09 51°8.05 2°32.85 74.6 1.5 78 15.4
2003-06-17 10:47:09 51°8.06 2°32.89 70.4 1.5 72 15.1
2003-06-17 10:48:09 51°8.07 2°32.92 67.5 1.4 64 15.2
2003-06-17 10:49:09 51°8.07 2°32.95 75.4 1.3 79 15.3
2003-06-17 10:50:09 51°8.07 2°32.99 83.5 1.2 98 15.1
2003-06-17 10:51:09 51°8.07 2°33.01 82.4 0.7 110 15.1
2003-06-17 10:52:09 51°8.06 2°33.02 74.5 0.4 97 15
2003-06-17 10:53:09 51°8.06 2°33.03 65.1   137 14.8
2003-06-17 10:54:09 51°8.06 2°33.02 56 0.2 254 14.9
2003-06-17 10:55:09 51°8.06 2°33.02 54.4 0.2 264 14.9
2003-06-17 10:56:09 51°8.06 2°33.01 58.6 0.3 251 14.9
2003-06-17 10:57:09 51°8.05 2°33 63.3 0.3 231 14.8
2003-06-17 10:58:09 51°8.05 2°33 68.2 0.3 210 14.9
2003-06-17 10:59:09 51°8.05 2°33 64 0.1 225 14.9
2003-06-17 11:00:09 51°8.05 2°32.99 50.5 0.1 304 14.8
2003-06-17 11:01:09 51°8.05 2°32.99 48.9 0.2 336 14.9
2003-06-17 11:02:09 51°8.05 2°32.99 51 0.3 355 14.9
2003-06-17 11:03:09 51°8.06 2°32.99 54.3 0.2 19 15.2
2003-06-17 11:04:09 51°8.06 2°32.99 55.7 0.2 25 15.2
2003-06-17 11:05:09 51°8.06 2°32.99 54.7 0.3 25 15.2
2003-06-17 11:06:09 51°8.07 2°33 62.1 0.3 52 15.3
2003-06-17 11:07:09 51°8.07 2°33.01 67.9 0.3 70 15.4
2003-06-17 11:08:09 51°8.07 2°33.01 75.4 0.4 101 15.2
2003-06-17 11:09:09 51°8.07 2°33.03 81.1 0.4 106 15.4
2003-06-17 11:10:09 51°8.07 2°33.04 85.6 0.5 121 15
2003-06-17 11:11:09 51°8.06 2°33.05 91.7 0.6 133 15
2003-06-17 11:12:09 51°8.05 2°33.06 99.4 0.8 143 14.9
2003-06-17 11:13:09 51°8.04 2°33.07 114.3 1 151 14.6
2003-06-17 11:14:09 51°8.02 2°33.08 134 1.3 172 14.1
2003-06-17 11:15:09 51°7.99 2°33.08 157.6 1.6 191 13.1
2003-06-17 11:16:09 51°7.97 2°33.07 172.7 1.7 199 12.6
2003-06-17 11:17:09 51°7.94 2°33.05 195.8 2.3 207 12.2
2003-06-17 11:18:09 51°7.89 2°32.99 242.6 5 236 11.5
2003-06-17 11:19:09 51°7.82 2°32.79 243.3 11 240 11.5
2003-06-17 11:20:09 51°7.72 2°32.52 242.4 11.9 239 11.3
2003-06-17 11:21:09 51°7.61 2°32.25 242.3 12 239 11.1
2003-06-17 11:22:09 51°7.51 2°31.98 242 12 238 11
2003-06-17 11:23:09 51°7.4 2°31.71 242.2 12 238 10.9
2003-06-17 11:24:09 51°7.3 2°31.45 242.6 11.9 238 10.6
2003-06-17 11:25:09 51°7.2 2°31.2 235 9.5 230 10.4
2003-06-17 11:26:09 51°7.09 2°31.05 214.9 8.3 212 10.2
2003-06-17 11:27:09 51°6.97 2°30.96 200.3 8.1 198 9
2003-06-17 11:28:09 51°6.84 2°30.93 172.5 7.6 173 8.5
2003-06-17 11:29:09 51°6.72 2°31.01 152.2 7.7 153 7.9
2003-06-17 11:30:09 51°6.61 2°31.12 144.4 7.8 145 -999
2003-06-17 11:31:09 51°6.5 2°31.21 157.4 7.9 156 10.1
2003-06-17 11:32:09 51°6.38 2°31.3 156.3 7.8 154 12.4
2003-06-17 11:33:09 51°6.27 2°31.4 135.2 7.3 134 11.9
2003-06-17 11:34:09 51°6.27 2°31.55 56.3 5.7 55 11.7
2003-06-17 11:35:09 51°6.34 2°31.68 53.6 7.1 51 11.3
2003-06-17 11:36:09 51°6.42 2°31.83 55 7.4 52 11.3
2003-06-17 11:37:09 51°6.49 2°31.99 53.4 7.6 51 11.3
2003-06-17 11:38:09 51°6.57 2°32.15 55.6 7.6 54 11.2
2003-06-17 11:39:09 51°6.64 2°32.3 54.1 6.6 53 11.2
2003-06-17 11:40:09 51°6.7 2°32.41 47.4 4.8 47 11.2
2003-06-17 11:41:09 51°6.75 2°32.5 53.2 3.8 53 11.1
2003-06-17 11:42:09 51°6.78 2°32.57 64.5 3.1 63 11
2003-06-17 11:43:09 51°6.8 2°32.64 68.2 2.5 68 10.9
2003-06-17 11:44:09 51°6.8 2°32.68 85.3 1.2 79 10.9
2003-06-17 11:45:09 51°6.8 2°32.71 86.7 1.1 85 10.9
2003-06-17 11:46:09 51°6.81 2°32.74 79.4 1 80 11
2003-06-17 11:47:09 51°6.81 2°32.77 72 1 77 11.1
2003-06-17 11:48:09 51°6.81 2°32.79 64.4 1 74 11
2003-06-17 11:49:09 51°6.82 2°32.82 55.6 1 70 11
2003-06-17 11:50:09 51°6.82 2°32.84 56.8 0.4 92 11
2003-06-17 11:51:11 51°6.81 2°32.82 56.9 1.9 229 5.9
2003-06-17 11:52:11 51°6.79 2°32.79 50.3 1.4 219 11.2
2003-06-17 11:53:09 51°6.78 2°32.77 42.8 1 208 11.1
2003-06-17 11:54:09 51°6.76 2°32.76 36.4 0.7 195 11.3
2003-06-17 11:55:09 51°6.75 2°32.76 31.9 0.6 176 11.2
2003-06-17 11:56:09 51°6.74 2°32.77 29.6 0.4 151 11.5
2003-06-17 11:57:09 51°6.74 2°32.78 30.6 0.4 116 11.4
2003-06-17 11:58:09 51°6.74 2°32.79 33.7 0.4 90 11.4
2003-06-17 11:59:09 51°6.74 2°32.8 27.2 1.1 45 11.3
2003-06-17 12:00:09 51°6.77 2°32.82 1.2 2.3 14 11.5
2003-06-17 12:01:09 51°6.8 2°32.83 335.5 2.1 353 11.5
2003-06-17 12:02:09 51°6.84 2°32.81 326.7 3.1 336 11.5
2003-06-17 12:03:09 51°6.89 2°32.8 6.5 3 12 10.1
2003-06-17 12:04:09 51°6.93 2°32.83 36.4 2.5 42 9.1
2003-06-17 12:05:09 51°6.95 2°32.89 63 2.3 65 8.8
2003-06-17 12:06:09 51°6.96 2°32.94 88.3 2 82 8.9
2003-06-17 12:07:09 51°6.96 2°32.99 110.6 1.9 98 9.2
2003-06-17 12:08:09 51°6.96 2°33.04 130.2 1.8 107 10.2
2003-06-17 12:09:09 51°6.94 2°33.08 148.6 1.7 116 10.9
2003-06-17 12:10:09 51°6.93 2°33.12 166.3 1.5 124 11.3
2003-06-17 12:11:09 51°6.92 2°33.15 186.6 1.5 144 11.5
2003-06-17 12:12:09 51°6.89 2°33.12 258 3 253 11.7
2003-06-17 12:13:09 51°6.86 2°32.97 258.9 8.1 255 11.8
2003-06-17 12:14:09 51°6.82 2°32.74 254.7 9.7 251 11.8
2003-06-17 12:15:09 51°6.76 2°32.5 255.3 9.8 251 12
2003-06-17 12:16:09 51°6.71 2°32.25 255.2 9.8 251 12.2
2003-06-17 12:17:09 51°6.66 2°32.01 254.7 9.7 251 12.3
2003-06-17 12:18:09 51°6.61 2°31.77 254.7 9.7 251 12.4
2003-06-17 12:19:09 51°6.55 2°31.52 255.9 9.7 252 12
2003-06-17 12:20:09 51°6.56 2°31.27 300.9 9.7 300 10.2
2003-06-17 12:21:09 51°6.69 2°31.12 328.8 10.2 329 9.1
2003-06-17 12:22:09 51°6.87 2°31.08 356.9 10.8 357 10
2003-06-17 12:23:09 51°7.05 2°31.08 2.2 11.1 1 11.2
2003-06-17 12:24:09 51°7.25 2°31.08 358.1 12.2 357 13.2
2003-06-17 12:25:09 51°7.45 2°31.12 35 13 32 15
2003-06-17 12:26:09 51°7.61 2°31.38 49.1 13.6 46 17.3
2003-06-17 12:27:09 51°7.76 2°31.64 49.3 14.3 46 20.4
2003-06-17 12:28:09 51°7.91 2°31.95 60.9 14.6 57 19.8
2003-06-17 12:29:09 51°8.04 2°32.28 64.6 14.7 61 17.7
2003-06-17 12:30:09 51°8.15 2°32.62 66.4 14.7 62 19.2
2003-06-17 12:31:09 51°8.27 2°32.96 65.8 14.8 61 19
2003-06-17 12:32:09 51°8.39 2°33.31 65.9 14.9 61 18.8
2003-06-17 12:33:09 51°8.51 2°33.66 65.4 15 61 18.6
2003-06-17 12:34:09 51°8.63 2°34 65.9 15.1 61 18.6
2003-06-17 12:35:13 51°8.76 2°34.38 65.4 15.1 61 18.7
2003-06-17 12:36:13 51°8.88 2°34.73 65.4 15.1 61 18.3
2003-06-17 12:37:13 51°9 2°35.07 65 15 61 18.4
2003-06-17 12:38:13 51°9.12 2°35.42 65.1 15.1 61 18.8
2003-06-17 12:39:13 51°9.24 2°35.77 64.8 15.1 61 18.4
2003-06-17 12:40:13 51°9.37 2°36.13 64.8 15.1 61 18.5
2003-06-17 12:41:13 51°9.49 2°36.48 64.9 15 61 18.3
2003-06-17 12:42:13 51°9.6 2°36.83 66 15.1 62 18.1
2003-06-17 12:43:13 51°9.72 2°37.18 65.4 15.1 62 18.5
2003-06-17 12:44:13 51°9.84 2°37.53 65 15.2 62 18.7
2003-06-17 12:45:13 51°9.96 2°37.89 65.4 15.2 62 19
2003-06-17 12:46:13 51°10.08 2°38.24 65.4 15.2 62 18.7
2003-06-17 12:47:13 51°10.2 2°38.6 65.3 15.2 62 18
2003-06-17 12:48:13 51°10.32 2°38.95 65.3 15.2 62 17.8
2003-06-17 12:49:13 51°10.43 2°39.31 74.4 15.2 71 17.2
2003-06-17 12:50:13 51°10.48 2°39.71 86.3 15.2 82 16.9
2003-06-17 12:51:13 51°10.52 2°40.1 84.1 15.2 79 16
2003-06-17 12:52:13 51°10.57 2°40.5 83.7 15.2 78 15.4
2003-06-17 12:53:13 51°10.62 2°40.9 83.6 15.3 78 15
2003-06-17 12:54:13 51°10.68 2°41.29 80.1 15.4 75 14.9
2003-06-17 12:55:13 51°10.75 2°41.69 80.3 15.4 75 14.9
2003-06-17 12:56:13 51°10.82 2°42.08 80.5 15.4 75 14.9
2003-06-17 12:57:13 51°10.89 2°42.47 80.3 15.4 75 14.9
2003-06-17 12:58:13 51°10.95 2°42.86 80.5 15.3 75 14.9
2003-06-17 12:59:13 51°11.02 2°43.25 80.9 15.3 75 14.9
2003-06-17 13:00:13 51°11.09 2°43.64 79.1 15.3 73 14.7
2003-06-17 13:01:13 51°11.16 2°44.03 77.6 15.3 72 14.7
2003-06-17 13:02:13 51°11.25 2°44.42 77.2 15.4 71 14.8
2003-06-17 13:03:13 51°11.33 2°44.8 75.8 15.4 70 14.7
2003-06-17 13:04:13 51°11.42 2°45.19 73.4 15.4 67 14.7
2003-06-17 13:05:13 51°11.52 2°45.56 72.9 15.4 68 14.9
2003-06-17 13:06:13 51°11.62 2°45.94 73.4 15.5 68 14.9
2003-06-17 13:07:13 51°11.72 2°46.32 72.8 15.4 67 14.9
2003-06-17 13:08:13 51°11.81 2°46.7 73.9 15.5 68 14.8
2003-06-17 13:09:13 51°11.91 2°47.08 73 15.6 67 14.5
2003-06-17 13:10:13 51°12.03 2°47.45 64.1 15.5 60 14.8
2003-06-17 13:11:13 51°12.16 2°47.8 64.8 15.6 60 14.7
2003-06-17 13:12:13 51°12.29 2°48.16 64.7 15.6 60 14.8
2003-06-17 13:13:13 51°12.42 2°48.52 65.2 15.7 60 14.6
2003-06-17 13:14:13 51°12.55 2°48.88 65 15.6 60 14.5
2003-06-17 13:15:13 51°12.68 2°49.24 64.8 15.6 60 14.3
2003-06-17 13:16:13 51°12.8 2°49.6 70.2 15.6 65 14.4
2003-06-17 13:17:13 51°12.91 2°49.98 70.4 15.7 65 14.1
2003-06-17 13:18:13 51°13.02 2°50.36 70.4 15.7 65 13.8
2003-06-17 13:19:13 51°13.13 2°50.73 70.9 15.7 65 13.6
2003-06-17 13:20:13 51°13.25 2°51.11 70.9 15.7 65 13.4
2003-06-17 13:21:13 51°13.38 2°51.47 64.8 15.7 59 13.2
2003-06-17 13:22:13 51°13.51 2°51.83 65.3 15.7 60 13.2
2003-06-17 13:23:13 51°13.64 2°52.19 65.8 15.7 60 13.2
2003-06-17 13:24:13 51°13.78 2°52.55 61.4 15.7 56 13
2003-06-17 13:25:13 51°13.93 2°52.89 59.8 15.7 55 12.9
2003-06-17 13:26:13 51°14.08 2°53.23 60.2 15.7 55 12.6
2003-06-17 13:27:13 51°14.22 2°53.53 59 13.2 55 12.5
2003-06-17 13:28:13 51°14.33 2°53.8 59.6 11 55 12.5
2003-06-17 13:29:13 51°14.41 2°54.04 81.3 10.1 73 12.4
2003-06-17 13:30:13 51°14.43 2°54.3 98.3 9.7 87 12.3
2003-06-17 13:31:13 51°14.44 2°54.55 101.6 9.6 91 13.4
2003-06-17 13:32:13 51°14.42 2°54.8 113.5 8.8 101 13.3
2003-06-17 13:33:13 51°14.39 2°55 128.9 7.2 109 13.2